createdAt,value
2018-08-20T00:01:47.519Z,9.37
2018-08-20T00:04:17.096Z,9.70
2018-08-20T00:06:53.559Z,9.30
2018-08-20T00:09:33.448Z,8.70
2018-08-20T00:12:03.230Z,9.33
2018-08-20T00:14:32.728Z,9.73
2018-08-20T00:17:02.776Z,9.10
2018-08-20T00:19:32.292Z,10.57
2018-08-20T00:22:01.598Z,9.00
2018-08-20T00:24:30.957Z,8.80
2018-08-20T00:27:02.039Z,9.67
2018-08-20T00:29:31.786Z,9.70
2018-08-20T00:32:01.227Z,8.90
2018-08-20T00:34:30.567Z,8.97
2018-08-20T00:36:59.973Z,10.00
2018-08-20T00:39:29.264Z,9.33
2018-08-20T00:41:59.279Z,10.20
2018-08-20T00:44:29.539Z,8.90
2018-08-20T00:46:58.935Z,8.97
2018-08-20T00:49:28.388Z,10.20
2018-08-20T00:51:57.800Z,9.90
2018-08-20T00:54:27.226Z,9.10
2018-08-20T00:56:57.189Z,9.30
2018-08-20T00:59:26.592Z,9.30
2018-08-20T01:01:55.879Z,9.50
2018-08-20T01:04:25.948Z,9.33
2018-08-20T01:06:55.233Z,8.60
2018-08-20T01:09:24.548Z,9.20
2018-08-20T01:11:53.924Z,9.13
2018-08-20T01:14:23.274Z,9.53
2018-08-20T01:16:52.781Z,9.87
2018-08-20T01:19:22.335Z,9.77
2018-08-20T01:21:51.595Z,9.83
2018-08-20T01:24:21.443Z,9.37
2018-08-20T01:26:50.797Z,10.03
2018-08-20T01:29:20.234Z,9.80
2018-08-20T01:31:49.524Z,9.37
2018-08-20T01:34:19.677Z,9.77
2018-08-20T01:36:49.030Z,9.80
2018-08-20T01:39:19.422Z,9.20
2018-08-20T01:41:48.971Z,10.37
2018-08-20T01:44:18.827Z,9.60
2018-08-20T01:46:48.076Z,9.40
2018-08-20T01:49:17.607Z,9.13
2018-08-20T01:51:47.500Z,10.10
2018-08-20T01:54:16.990Z,9.80
2018-08-20T01:56:46.275Z,9.43
2018-08-20T01:59:16.090Z,9.13
2018-08-20T02:01:45.355Z,9.27
2018-08-20T02:04:14.922Z,10.30
2018-08-20T02:06:44.375Z,10.07
2018-08-20T02:09:13.805Z,10.27
2018-08-20T02:11:43.489Z,10.40
2018-08-20T02:14:12.792Z,10.30
2018-08-20T02:16:42.366Z,10.50
2018-08-20T02:19:11.999Z,10.57
2018-08-20T02:21:41.371Z,9.70
2018-08-20T02:24:10.980Z,10.07
2018-08-20T02:26:40.849Z,9.43
2018-08-20T02:29:10.361Z,9.70
2018-08-20T02:31:39.722Z,10.90
2018-08-20T02:34:09.246Z,9.40
2018-08-20T02:36:38.732Z,9.70
2018-08-20T02:39:10.786Z,10.67
2018-08-20T02:41:40.423Z,9.30
2018-08-20T02:44:11.193Z,10.23
2018-08-20T02:46:49.913Z,9.03
2018-08-20T02:49:19.648Z,10.33
2018-08-20T02:51:50.551Z,10.10
2018-08-20T02:54:20.008Z,10.77
2018-08-20T02:56:49.413Z,9.67
2018-08-20T02:59:18.914Z,9.30
2018-08-20T03:01:48.496Z,8.87
2018-08-20T03:04:18.359Z,9.87
2018-08-20T03:06:48.022Z,11.17
2018-08-20T03:09:17.617Z,10.30
2018-08-20T03:11:46.975Z,9.90
2018-08-20T03:14:16.989Z,10.27
2018-08-20T03:16:46.404Z,9.23
2018-08-20T03:19:15.694Z,11.10
2018-08-20T03:21:45.230Z,9.10
2018-08-20T03:24:14.518Z,9.70
2018-08-20T03:26:43.828Z,10.83
2018-08-20T03:29:13.183Z,9.60
2018-08-20T03:31:42.543Z,10.67
2018-08-20T03:34:12.326Z,10.23
2018-08-20T03:36:41.959Z,10.10
2018-08-20T03:39:11.738Z,9.87
2018-08-20T03:41:41.035Z,8.93
2018-08-20T03:44:10.451Z,10.10
2018-08-20T03:46:39.761Z,10.57
2018-08-20T03:49:09.226Z,10.90
2018-08-20T03:51:38.526Z,9.00
2018-08-20T03:54:09.494Z,9.13
2018-08-20T03:56:39.304Z,9.97
2018-08-20T03:59:09.948Z,10.77
2018-08-20T04:01:39.299Z,9.97
2018-08-20T04:04:08.854Z,9.67
2018-08-20T04:06:38.738Z,9.87
2018-08-20T04:09:08.199Z,9.83
2018-08-20T04:11:37.459Z,10.00
2018-08-20T04:14:06.790Z,9.87
2018-08-20T04:16:36.606Z,9.87
2018-08-20T04:19:07.912Z,10.60
2018-08-20T04:21:38.565Z,9.83
2018-08-20T04:24:08.490Z,10.27
2018-08-20T04:26:37.864Z,10.17
2018-08-20T04:29:07.283Z,9.73
2018-08-20T04:31:37.145Z,10.60
2018-08-20T04:34:07.408Z,9.97
2018-08-20T04:36:37.492Z,10.43
2018-08-20T04:39:08.273Z,10.93
2018-08-20T04:41:37.838Z,10.67
2018-08-20T04:44:08.518Z,10.37
2018-08-20T04:46:39.010Z,10.23
2018-08-20T04:49:09.093Z,10.57
2018-08-20T04:51:38.425Z,10.80
2018-08-20T04:54:08.037Z,9.50
2018-08-20T04:56:37.511Z,10.50
2018-08-20T04:59:06.803Z,9.87
2018-08-20T05:01:36.526Z,9.90
2018-08-20T05:04:06.473Z,10.43
2018-08-20T05:06:37.023Z,11.97
2018-08-20T05:09:07.791Z,9.40
2018-08-20T05:11:37.072Z,9.83
2018-08-20T05:14:06.603Z,10.43
2018-08-20T05:16:36.507Z,10.10
2018-08-20T05:19:05.987Z,9.60
2018-08-20T05:21:37.493Z,10.30
2018-08-20T05:24:07.342Z,11.23
2018-08-20T05:26:36.652Z,9.90
2018-08-20T05:29:06.258Z,11.03
2018-08-20T05:31:35.721Z,10.10
2018-08-20T05:34:05.399Z,10.43
2018-08-20T05:36:34.812Z,11.07
2018-08-20T05:39:05.680Z,10.20
2018-08-20T05:41:35.499Z,9.70
2018-08-20T05:44:05.206Z,10.23
2018-08-20T05:46:34.630Z,10.20
2018-08-20T05:49:04.207Z,10.57
2018-08-20T05:51:33.576Z,10.77
2018-08-20T05:54:03.338Z,10.17
2018-08-20T05:56:32.705Z,10.07
2018-08-20T05:59:02.007Z,11.53
2018-08-20T06:01:32.028Z,14.67
2018-08-20T06:04:01.515Z,18.27
2018-08-20T06:06:31.064Z,10.83
2018-08-20T06:09:01.235Z,14.47
2018-08-20T06:11:31.355Z,11.33
2018-08-20T06:14:00.698Z,13.23
2018-08-20T06:16:30.821Z,11.77
2018-08-20T06:19:00.134Z,12.33
2018-08-20T06:21:30.299Z,16.30
2018-08-20T06:23:59.772Z,20.03
2018-08-20T06:26:29.717Z,11.70
2018-08-20T06:28:59.275Z,13.83
2018-08-20T06:31:28.613Z,10.97
2018-08-20T06:33:58.027Z,12.07
2018-08-20T06:36:27.417Z,13.73
2018-08-20T06:38:57.098Z,15.87
2018-08-20T06:41:27.219Z,13.50
2018-08-20T06:43:56.872Z,12.33
2018-08-20T06:46:26.637Z,32.53
2018-08-20T06:48:55.984Z,46.60
2018-08-20T06:51:25.311Z,333.63
2018-08-20T06:53:54.733Z,504.00
2018-08-20T06:56:24.272Z,148.57
2018-08-20T06:58:54.169Z,44.50
2018-08-20T07:01:23.622Z,102.23
2018-08-20T07:03:53.022Z,111.90
2018-08-20T07:06:22.679Z,101.57
2018-08-20T07:08:52.501Z,101.10
2018-08-20T07:11:22.021Z,99.23
2018-08-20T07:13:52.455Z,132.73
2018-08-20T07:16:21.903Z,87.17
2018-08-20T07:18:52.183Z,117.30
2018-08-20T07:21:21.584Z,132.73
2018-08-20T07:23:51.961Z,83.87
2018-08-20T07:26:21.297Z,67.33
2018-08-20T07:28:50.646Z,63.53
2018-08-20T07:31:20.651Z,62.77
2018-08-20T07:33:50.019Z,83.97
2018-08-20T07:36:19.337Z,58.97
2018-08-20T07:38:49.067Z,65.37
2018-08-20T07:41:18.449Z,73.63
2018-08-20T07:43:47.913Z,77.13
2018-08-20T07:46:17.468Z,69.00
2018-08-20T07:48:47.036Z,48.77
2018-08-20T07:51:16.596Z,67.20
2018-08-20T07:53:46.201Z,59.53
2018-08-20T07:56:15.632Z,53.77
2018-08-20T07:58:44.995Z,48.90
2018-08-20T08:01:14.990Z,47.77
2018-08-20T08:03:44.586Z,46.33
2018-08-20T08:06:14.268Z,44.67
2018-08-20T08:08:43.594Z,45.60
2018-08-20T08:11:12.979Z,40.20
2018-08-20T08:13:42.345Z,51.23
2018-08-20T08:16:12.532Z,40.40
2018-08-20T08:18:42.082Z,55.77
2018-08-20T08:21:12.190Z,37.60
2018-08-20T08:23:41.642Z,50.70
2018-08-20T08:26:10.969Z,50.50
2018-08-20T08:28:40.382Z,35.37
2018-08-20T08:31:09.760Z,39.57
2018-08-20T08:33:39.143Z,40.63
2018-08-20T08:36:08.428Z,34.50
2018-08-20T08:38:37.728Z,41.77
2018-08-20T08:41:07.792Z,35.50
2018-08-20T08:43:37.391Z,38.60
2018-08-20T08:46:06.990Z,26.47
2018-08-20T08:48:36.817Z,34.07
2018-08-20T08:51:06.726Z,33.20
2018-08-20T08:53:36.305Z,31.13
2018-08-20T08:56:05.655Z,31.30
2018-08-20T08:58:35.377Z,30.10
2018-08-20T09:01:04.886Z,26.83
2018-08-20T09:03:34.205Z,32.03
2018-08-20T09:06:04.410Z,22.67
2018-08-20T09:08:33.924Z,26.13
2018-08-20T09:11:03.405Z,27.87
2018-08-20T09:13:32.772Z,23.10
2018-08-20T09:16:02.175Z,18.83
2018-08-20T09:18:32.255Z,21.47
2018-08-20T09:21:02.115Z,20.67
2018-08-20T09:23:31.498Z,24.13
2018-08-20T09:26:01.734Z,25.83
2018-08-20T09:28:31.279Z,21.77
2018-08-20T09:31:00.823Z,22.57
2018-08-20T09:33:30.478Z,21.77
2018-08-20T09:35:59.926Z,23.57
2018-08-20T09:38:30.403Z,24.57
2018-08-20T09:41:00.059Z,19.17
2018-08-20T09:43:29.453Z,20.43
2018-08-20T09:45:59.804Z,17.07
2018-08-20T09:48:29.332Z,21.47
2018-08-20T09:50:58.813Z,16.80
2018-08-20T09:53:28.464Z,20.00
2018-08-20T09:55:57.771Z,12.87
2018-08-20T09:58:27.901Z,15.43
2018-08-20T10:00:58.383Z,15.43
2018-08-20T10:03:27.823Z,17.30
2018-08-20T10:05:57.440Z,17.00
2018-08-20T10:08:27.010Z,18.07
2018-08-20T10:10:56.832Z,20.83
2018-08-20T10:13:26.140Z,16.30
2018-08-20T10:15:55.741Z,15.77
2018-08-20T10:18:25.825Z,14.60
2018-08-20T10:20:55.205Z,16.63
2018-08-20T10:23:24.910Z,17.73
2018-08-20T10:25:54.238Z,15.83
2018-08-20T10:28:23.712Z,13.27
2018-08-20T10:30:53.263Z,11.87
2018-08-20T10:33:22.773Z,11.93
2018-08-20T10:35:52.140Z,12.80
2018-08-20T10:38:21.497Z,16.00
2018-08-20T10:40:50.811Z,12.33
2018-08-20T10:43:20.239Z,11.23
2018-08-20T10:45:55.744Z,11.53
2018-08-20T10:48:25.170Z,11.03
2018-08-20T10:50:54.477Z,14.53
2018-08-20T10:53:24.471Z,14.00
2018-08-20T10:55:53.955Z,14.50
2018-08-20T10:58:23.485Z,10.03
2018-08-20T11:00:53.104Z,12.77
2018-08-20T11:03:22.729Z,10.27
2018-08-20T11:05:52.448Z,11.63
2018-08-20T11:08:22.912Z,12.30
2018-08-20T11:10:52.343Z,11.27
2018-08-20T11:13:22.023Z,12.17
2018-08-20T11:15:51.609Z,10.17
2018-08-20T11:18:21.093Z,8.83
2018-08-20T11:20:51.286Z,12.40
2018-08-20T11:23:21.542Z,10.67
2018-08-20T11:25:51.483Z,10.63
2018-08-20T11:28:20.899Z,10.17
2018-08-20T11:30:50.215Z,9.93
2018-08-20T11:33:19.685Z,9.97
2018-08-20T11:35:49.072Z,11.83
2018-08-20T11:38:18.518Z,9.73
2018-08-20T11:40:48.004Z,9.27
2018-08-20T11:43:18.599Z,9.73
2018-08-20T11:45:47.969Z,10.03
2018-08-20T11:48:17.435Z,10.53
2018-08-20T11:50:46.911Z,10.73
2018-08-20T11:53:16.557Z,10.93
2018-08-20T11:55:46.394Z,9.13
2018-08-20T11:58:16.181Z,9.23
2018-08-20T12:00:46.716Z,9.33
2018-08-20T12:03:16.836Z,9.23
2018-08-20T12:05:47.237Z,9.77
2018-08-20T12:08:16.758Z,12.03
2018-08-20T12:10:46.914Z,9.80
2018-08-20T12:13:16.218Z,9.17
2018-08-20T12:15:45.641Z,9.20
2018-08-20T12:18:16.807Z,10.97
2018-08-20T12:20:46.333Z,10.77
2018-08-20T12:23:15.628Z,9.23
2018-08-20T12:25:46.069Z,11.83
2018-08-20T12:28:15.364Z,12.40
2018-08-20T12:30:44.730Z,11.33
2018-08-20T12:33:14.456Z,9.50
2018-08-20T12:35:43.760Z,9.70
2018-08-20T12:38:13.021Z,15.53
2018-08-20T12:40:42.311Z,9.40
2018-08-20T12:43:11.614Z,14.47
2018-08-20T12:45:40.865Z,11.60
2018-08-20T12:48:10.429Z,10.57
2018-08-20T12:50:39.739Z,9.77
2018-08-20T12:53:09.065Z,10.27
2018-08-20T12:55:38.743Z,10.27
2018-08-20T12:58:08.439Z,9.47
2018-08-20T13:00:38.372Z,13.37
2018-08-20T13:03:07.610Z,9.23
2018-08-20T13:05:37.044Z,9.27
2018-08-20T13:08:06.322Z,10.93
2018-08-20T13:10:35.598Z,9.00
2018-08-20T13:13:05.481Z,9.03
2018-08-20T13:15:34.714Z,10.63
2018-08-20T13:18:04.521Z,11.17
2018-08-20T13:20:33.945Z,12.53
2018-08-20T13:23:03.904Z,10.30
2018-08-20T13:25:33.176Z,8.87
2018-08-20T13:28:02.888Z,9.03
2018-08-20T13:30:32.162Z,9.07
2018-08-20T13:33:01.908Z,10.47
2018-08-20T13:35:31.496Z,9.13
2018-08-20T13:38:00.865Z,9.83
2018-08-20T13:40:30.623Z,15.67
2018-08-20T13:43:00.065Z,27.80
2018-08-20T13:45:30.135Z,19.37
2018-08-20T13:47:59.560Z,31.27
2018-08-20T13:50:29.340Z,20.53
2018-08-20T13:52:58.603Z,23.93
2018-08-20T13:55:27.898Z,18.20
2018-08-20T13:57:57.204Z,20.70
2018-08-20T14:00:26.789Z,20.03
2018-08-20T14:02:56.084Z,14.57
2018-08-20T14:05:25.466Z,20.53
2018-08-20T14:07:54.767Z,10.63
2018-08-20T14:10:24.015Z,13.30
2018-08-20T14:12:53.323Z,11.90
2018-08-20T14:15:22.671Z,13.00
2018-08-20T14:17:52.404Z,9.57
2018-08-20T14:20:21.782Z,10.67
2018-08-20T14:22:51.091Z,10.07
2018-08-20T14:25:20.390Z,12.57
2018-08-20T14:27:50.105Z,11.93
2018-08-20T14:30:19.414Z,12.13
2018-08-20T14:32:48.674Z,11.67
2018-08-20T14:35:17.965Z,12.97
2018-08-20T14:37:47.387Z,8.63
2018-08-20T14:40:18.223Z,9.53
2018-08-20T14:42:47.567Z,9.80
2018-08-20T14:45:17.300Z,11.53
2018-08-20T14:47:46.801Z,8.77
2018-08-20T14:50:17.292Z,8.50
2018-08-20T14:52:46.643Z,7.93
2018-08-20T14:55:15.976Z,8.20
2018-08-20T14:57:45.307Z,9.57
2018-08-20T15:00:15.275Z,8.77
2018-08-20T15:02:44.545Z,9.23
2018-08-20T15:05:13.937Z,12.30
2018-08-20T15:07:43.206Z,8.83
2018-08-20T15:10:12.477Z,7.83
2018-08-20T15:12:42.020Z,7.10
2018-08-20T15:15:11.814Z,7.33
2018-08-20T15:17:41.058Z,8.17
2018-08-20T15:20:10.413Z,7.60
2018-08-20T15:22:39.937Z,7.00
2018-08-20T15:25:09.253Z,7.93
2018-08-20T15:27:38.563Z,7.90
2018-08-20T15:30:07.879Z,8.00
2018-08-20T15:32:37.210Z,8.00
2018-08-20T15:35:06.846Z,7.27
2018-08-20T15:37:36.731Z,10.53
2018-08-20T15:40:06.821Z,6.90
2018-08-20T15:42:36.120Z,8.60
2018-08-20T15:45:05.716Z,7.00
2018-08-20T15:47:35.740Z,7.30
2018-08-20T15:50:05.404Z,7.87
2018-08-20T15:52:34.851Z,6.67
2018-08-20T15:55:04.583Z,7.80
2018-08-20T15:57:33.875Z,7.43
2018-08-20T16:00:03.611Z,7.77
2018-08-20T16:02:33.042Z,7.83
2018-08-20T16:05:02.319Z,7.57
2018-08-20T16:07:31.696Z,7.63
2018-08-20T16:10:01.312Z,7.63
2018-08-20T16:12:30.865Z,6.67
2018-08-20T16:15:00.387Z,7.03
2018-08-20T16:17:29.740Z,7.30
2018-08-20T16:19:59.030Z,6.90
2018-08-20T16:22:28.593Z,7.43
2018-08-20T16:24:58.059Z,7.23
2018-08-20T16:27:27.363Z,6.93
2018-08-20T16:29:56.694Z,7.00
2018-08-20T16:32:26.375Z,7.30
2018-08-20T16:34:55.700Z,7.10
2018-08-20T16:37:26.128Z,7.57
2018-08-20T16:39:55.528Z,7.53
2018-08-20T16:42:24.810Z,7.40
2018-08-20T16:44:54.520Z,7.20
2018-08-20T16:47:24.116Z,7.23
2018-08-20T16:49:53.900Z,6.57
2018-08-20T16:52:23.198Z,7.37
2018-08-20T16:54:52.509Z,7.77
2018-08-20T16:57:21.823Z,7.03
2018-08-20T16:59:51.124Z,7.20
2018-08-20T17:02:25.544Z,7.13
2018-08-20T17:04:54.840Z,7.80
2018-08-20T17:07:24.170Z,6.83
2018-08-20T17:09:53.823Z,7.03
2018-08-20T17:12:23.114Z,7.07
2018-08-20T17:14:52.689Z,6.90
2018-08-20T17:17:21.982Z,6.57
2018-08-20T17:19:51.671Z,8.37
2018-08-20T17:22:20.939Z,7.13
2018-08-20T17:24:56.243Z,7.03
2018-08-20T17:27:25.595Z,6.97
2018-08-20T17:29:56.356Z,7.40
2018-08-20T17:32:25.796Z,6.97
2018-08-20T17:34:55.074Z,9.10
2018-08-20T17:37:24.392Z,6.97
2018-08-20T17:40:06.498Z,7.27
2018-08-20T17:42:35.857Z,7.00
2018-08-20T17:45:07.086Z,6.80
2018-08-20T17:47:38.841Z,8.00
2018-08-20T17:50:23.685Z,7.70
2018-08-20T17:52:53.580Z,7.50
2018-08-20T17:55:22.997Z,7.43
2018-08-20T17:57:52.304Z,7.00
2018-08-20T18:00:32.415Z,7.63
2018-08-20T18:03:01.915Z,7.23
2018-08-20T18:05:31.184Z,7.60
2018-08-20T18:08:06.871Z,6.83
2018-08-20T18:10:36.499Z,6.87
2018-08-20T18:13:05.987Z,7.60
2018-08-20T18:15:35.275Z,6.77
2018-08-20T18:18:04.600Z,7.80
2018-08-20T18:20:39.850Z,6.90
2018-08-20T18:23:09.126Z,7.27
2018-08-20T18:25:41.910Z,7.23
2018-08-20T18:28:11.199Z,6.80
2018-08-20T18:30:40.509Z,6.80
2018-08-20T18:33:09.915Z,6.83
2018-08-20T18:35:39.227Z,6.23
2018-08-20T18:38:08.557Z,6.80
2018-08-20T18:40:38.253Z,6.97
2018-08-20T18:43:07.958Z,7.10
2018-08-20T18:45:37.277Z,6.63
2018-08-20T18:48:07.023Z,7.90
2018-08-20T18:50:36.931Z,6.20
2018-08-20T18:53:06.208Z,7.37
2018-08-20T18:55:35.556Z,6.90
2018-08-20T18:58:04.913Z,6.67
2018-08-20T19:00:34.881Z,7.53
2018-08-20T19:03:04.496Z,7.43
2018-08-20T19:05:38.993Z,7.30
2018-08-20T19:08:12.540Z,6.87
2018-08-20T19:10:42.574Z,7.10
2018-08-20T19:13:11.960Z,7.10
2018-08-20T19:15:44.139Z,7.50
2018-08-20T19:18:17.710Z,7.47
2018-08-20T19:20:47.134Z,7.07
2018-08-20T19:23:16.507Z,7.03
2018-08-20T19:25:45.845Z,6.83
2018-08-20T19:28:22.541Z,7.40
2018-08-20T19:30:53.551Z,7.57
2018-08-20T19:33:25.192Z,7.90
2018-08-20T19:35:55.018Z,7.27
2018-08-20T19:38:24.402Z,6.97
2018-08-20T19:41:14.738Z,7.50
2018-08-20T19:43:48.367Z,7.63
2018-08-20T19:46:30.227Z,7.47
2018-08-20T19:49:05.062Z,6.90
2018-08-20T19:51:36.013Z,7.13
2018-08-20T19:54:06.594Z,7.43
2018-08-20T19:56:37.262Z,7.83
2018-08-20T19:59:07.090Z,7.37
2018-08-20T20:01:36.428Z,6.90
2018-08-20T20:04:05.847Z,6.90
2018-08-20T20:06:35.457Z,7.73
2018-08-20T20:09:09.187Z,8.73
2018-08-20T20:11:43.347Z,7.73
2018-08-20T20:14:12.794Z,8.70
2018-08-20T20:16:54.952Z,7.37
2018-08-20T20:19:24.268Z,7.20
2018-08-20T20:21:53.848Z,7.93
2018-08-20T20:24:23.223Z,7.50
2018-08-20T20:26:53.505Z,6.83
2018-08-20T20:29:23.223Z,7.83
2018-08-20T20:31:53.691Z,8.07
2018-08-20T20:34:22.955Z,8.37
2018-08-20T20:36:52.226Z,8.07
2018-08-20T20:39:21.916Z,8.37
2018-08-20T20:41:51.299Z,8.90
2018-08-20T20:44:20.680Z,8.43
2018-08-20T20:46:50.611Z,8.37
2018-08-20T20:49:19.963Z,8.63
2018-08-20T20:51:49.219Z,7.63
2018-08-20T20:54:18.495Z,10.20
2018-08-20T20:56:48.158Z,8.07
2018-08-20T20:59:17.433Z,9.67
2018-08-20T21:01:47.134Z,8.20
2018-08-20T21:04:16.826Z,7.73
2018-08-20T21:06:46.177Z,7.73
2018-08-20T21:09:15.465Z,8.60
2018-08-20T21:11:44.830Z,7.97
2018-08-20T21:14:14.247Z,8.83
2018-08-20T21:16:43.489Z,7.97
2018-08-20T21:19:13.125Z,8.07
2018-08-20T21:21:42.410Z,7.93
2018-08-20T21:24:11.695Z,8.17
2018-08-20T21:26:41.254Z,9.17
2018-08-20T21:29:10.529Z,8.23
2018-08-20T21:31:45.723Z,8.03
2018-08-20T21:34:15.521Z,9.17
2018-08-20T21:36:44.945Z,8.20
2018-08-20T21:39:14.342Z,8.17
2018-08-20T21:41:43.963Z,8.63
2018-08-20T21:44:13.464Z,8.87
2018-08-20T21:46:42.914Z,8.37
2018-08-20T21:49:12.559Z,8.63
2018-08-20T21:52:01.409Z,8.70
2018-08-20T21:54:36.118Z,8.40
2018-08-20T21:57:05.726Z,9.53
2018-08-20T21:59:35.056Z,8.90
2018-08-20T22:02:04.402Z,9.47
2018-08-20T22:04:33.805Z,9.00
2018-08-20T22:07:03.551Z,8.90
2018-08-20T22:09:32.848Z,9.77
2018-08-20T22:12:02.147Z,8.70
2018-08-20T22:14:31.746Z,11.37
2018-08-20T22:17:01.405Z,9.63
2018-08-20T22:19:30.713Z,9.80
2018-08-20T22:22:00.010Z,8.30
2018-08-20T22:24:29.576Z,8.73
2018-08-20T22:26:59.328Z,8.70
2018-08-20T22:29:37.322Z,9.57
2018-08-20T22:32:08.512Z,8.50
2018-08-20T22:34:37.902Z,8.87
2018-08-20T22:37:08.321Z,9.17
2018-08-20T22:39:37.612Z,9.43
2018-08-20T22:42:07.002Z,8.87
2018-08-20T22:44:36.700Z,9.40
2018-08-20T22:47:06.703Z,9.20
2018-08-20T22:49:36.339Z,8.83
2018-08-20T22:52:07.898Z,8.83
2018-08-20T22:54:37.527Z,8.73
2018-08-20T22:57:06.837Z,8.67
2018-08-20T22:59:36.430Z,9.17
2018-08-20T23:02:05.757Z,9.17
2018-08-20T23:04:35.076Z,8.70
2018-08-20T23:07:08.773Z,8.83
2018-08-20T23:09:38.042Z,9.17
2018-08-20T23:12:07.890Z,9.13
2018-08-20T23:14:37.523Z,8.87
2018-08-20T23:17:06.819Z,9.03
2018-08-20T23:19:36.127Z,9.40
2018-08-20T23:22:05.507Z,8.87
2018-08-20T23:24:37.775Z,9.03
2018-08-20T23:27:07.118Z,9.30
2018-08-20T23:29:36.380Z,8.93
2018-08-20T23:32:05.918Z,10.27
2018-08-20T23:34:35.498Z,9.00
2018-08-20T23:37:05.019Z,9.20
2018-08-20T23:39:34.628Z,9.87
2018-08-20T23:42:04.767Z,9.80
2018-08-20T23:44:34.523Z,9.90
2018-08-20T23:47:03.881Z,13.63
2018-08-20T23:49:33.229Z,8.63
2018-08-20T23:52:02.801Z,9.33
2018-08-20T23:54:32.079Z,8.60
2018-08-20T23:57:01.421Z,8.60
2018-08-20T23:59:30.703Z,9.27
